createdAt,value
2023-04-20T00:00:46.024Z,7.07
2023-04-20T00:03:22.098Z,7.01
2023-04-20T00:05:55.661Z,6.99
2023-04-20T00:08:28.331Z,7.00
2023-04-20T00:11:00.830Z,7.00
2023-04-20T00:13:33.968Z,7.00
2023-04-20T00:16:18.371Z,6.99
2023-04-20T00:18:51.932Z,6.98
2023-04-20T00:21:24.595Z,6.93
2023-04-20T00:23:57.304Z,6.90
2023-04-20T00:26:29.930Z,6.88
2023-04-20T00:29:03.730Z,6.88
2023-04-20T00:31:36.500Z,6.93
2023-04-20T00:34:09.440Z,6.94
2023-04-20T00:36:42.032Z,6.97
2023-04-20T00:39:16.217Z,6.99
2023-04-20T00:41:48.968Z,6.97
2023-04-20T00:44:21.785Z,6.95
2023-04-20T00:46:56.853Z,6.96
2023-04-20T00:49:31.446Z,6.98
2023-04-20T00:52:04.376Z,6.98
2023-04-20T00:54:38.020Z,6.96
2023-04-20T00:57:11.081Z,6.94
2023-04-20T00:59:43.667Z,6.94
2023-04-20T01:02:16.406Z,6.94
2023-04-20T01:04:50.147Z,6.95
2023-04-20T01:07:23.858Z,6.97
2023-04-20T01:09:56.814Z,6.99
2023-04-20T01:12:30.217Z,6.97
2023-04-20T01:15:03.946Z,6.97
2023-04-20T01:17:38.508Z,6.98
2023-04-20T01:20:13.909Z,6.98
2023-04-20T01:22:51.836Z,6.96
2023-04-20T01:25:25.147Z,6.97
2023-04-20T01:28:00.011Z,6.97
2023-04-20T01:30:34.346Z,7.01
2023-04-20T01:33:09.754Z,7.02
2023-04-20T01:35:45.464Z,7.01
2023-04-20T01:38:23.216Z,7.03
2023-04-20T01:40:56.970Z,7.05
2023-04-20T01:43:27.882Z,7.07
2023-04-20T01:46:03.944Z,7.05
2023-04-20T01:48:37.845Z,7.09
2023-04-20T01:51:11.401Z,7.12
2023-04-20T01:53:47.852Z,7.11
2023-04-20T01:56:30.810Z,7.09
2023-04-20T01:59:04.228Z,7.07
2023-04-20T02:01:38.960Z,7.05
2023-04-20T02:04:12.607Z,7.06
2023-04-20T02:06:45.732Z,7.06
2023-04-20T02:09:18.809Z,7.09
2023-04-20T02:11:51.829Z,7.11
2023-04-20T02:14:25.268Z,7.13
2023-04-20T02:17:01.393Z,7.16
2023-04-20T02:19:35.252Z,7.17
2023-04-20T02:22:08.250Z,7.20
2023-04-20T02:24:39.911Z,7.21
2023-04-20T02:27:15.137Z,7.19
2023-04-20T02:29:49.900Z,7.19
2023-04-20T02:32:23.064Z,7.20
2023-04-20T02:34:57.590Z,7.20
2023-04-20T02:37:32.527Z,7.16
2023-04-20T02:40:13.678Z,7.12
2023-04-20T02:42:46.659Z,7.14
2023-04-20T02:45:20.056Z,7.18
2023-04-20T02:47:52.962Z,7.19
2023-04-20T02:50:26.022Z,7.22
2023-04-20T02:53:18.797Z,7.24
2023-04-20T02:55:55.686Z,7.24
2023-04-20T02:58:35.292Z,7.23
2023-04-20T03:01:17.021Z,7.23
2023-04-20T03:03:50.792Z,7.21
2023-04-20T03:06:23.905Z,7.18
2023-04-20T03:09:00.011Z,7.18
2023-04-20T03:12:09.178Z,7.15
2023-04-20T03:15:00.464Z,7.18
2023-04-20T03:17:53.012Z,7.19
2023-04-20T03:20:25.602Z,7.19
2023-04-20T03:22:58.478Z,7.18
2023-04-20T03:25:32.581Z,7.18
2023-04-20T03:28:08.485Z,7.16
2023-04-20T03:30:41.472Z,7.15
2023-04-20T03:33:19.818Z,7.12
2023-04-20T03:35:52.902Z,7.14
2023-04-20T03:38:26.745Z,7.12
2023-04-20T03:40:59.367Z,7.10
2023-04-20T03:43:31.372Z,7.08
2023-04-20T03:46:04.497Z,7.04
2023-04-20T03:48:37.425Z,7.07
2023-04-20T03:51:10.204Z,7.10
2023-04-20T03:53:44.132Z,7.11
2023-04-20T03:56:18.282Z,7.15
2023-04-20T03:58:51.349Z,7.18
2023-04-20T04:01:28.367Z,7.16
2023-04-20T04:04:01.383Z,7.08
2023-04-20T04:06:34.340Z,7.06
2023-04-20T04:09:07.340Z,7.06
2023-04-20T04:11:40.115Z,7.00
2023-04-20T04:14:13.077Z,7.02
2023-04-20T04:16:46.972Z,7.01
2023-04-20T04:19:20.758Z,7.00
2023-04-20T04:21:55.166Z,7.00
2023-04-20T04:24:28.618Z,6.98
2023-04-20T04:27:12.018Z,6.98
2023-04-20T04:29:47.789Z,6.99
2023-04-20T04:32:24.597Z,7.01
2023-04-20T04:34:58.094Z,7.05
2023-04-20T04:37:31.481Z,7.08
2023-04-20T04:40:07.776Z,7.10
2023-04-20T04:42:41.210Z,7.15
2023-04-20T04:45:15.535Z,7.21
2023-04-20T04:47:48.844Z,7.30
2023-04-20T04:50:22.597Z,7.38
2023-04-20T04:52:55.449Z,7.44
2023-04-20T04:55:28.243Z,7.52
2023-04-20T04:58:02.142Z,7.53
2023-04-20T05:00:35.470Z,7.55
2023-04-20T05:03:08.733Z,7.54
2023-04-20T05:05:41.628Z,7.52
2023-04-20T05:08:14.758Z,7.56
2023-04-20T05:10:49.290Z,7.62
2023-04-20T05:13:25.000Z,7.65
2023-04-20T05:15:57.901Z,7.67
2023-04-20T05:18:31.046Z,7.68
2023-04-20T05:21:03.993Z,7.74
2023-04-20T05:23:36.604Z,7.87
2023-04-20T05:26:09.607Z,8.12
2023-04-20T05:28:43.222Z,8.35
2023-04-20T05:31:16.256Z,8.57
2023-04-20T05:33:49.010Z,8.69
2023-04-20T05:36:21.883Z,8.69
2023-04-20T05:38:54.724Z,8.79
2023-04-20T05:41:28.430Z,9.04
2023-04-20T05:43:59.123Z,9.19
2023-04-20T05:46:31.831Z,9.33
2023-04-20T05:49:04.418Z,9.56
2023-04-20T05:51:37.178Z,9.76
2023-04-20T05:54:13.089Z,10.03
2023-04-20T05:56:46.094Z,10.17
2023-04-20T05:59:19.429Z,10.05
2023-04-20T06:01:52.686Z,10.05
2023-04-20T06:04:25.862Z,10.07
2023-04-20T06:06:56.957Z,10.26
2023-04-20T06:09:29.846Z,10.43
2023-04-20T06:12:03.280Z,10.51
2023-04-20T06:14:36.531Z,10.51
2023-04-20T06:17:09.268Z,10.52
2023-04-20T06:19:41.980Z,10.51
2023-04-20T06:22:15.185Z,10.47
2023-04-20T06:24:49.284Z,10.49
2023-04-20T06:27:21.846Z,10.52
2023-04-20T06:29:55.108Z,10.59
2023-04-20T06:32:28.527Z,10.59
2023-04-20T06:34:59.482Z,10.65
2023-04-20T06:37:32.189Z,10.65
2023-04-20T06:40:08.556Z,10.76
2023-04-20T06:42:41.670Z,10.81
2023-04-20T06:45:15.081Z,10.78
2023-04-20T06:47:47.914Z,10.79
2023-04-20T06:50:21.196Z,10.80
2023-04-20T06:52:54.561Z,10.76
2023-04-20T06:55:27.829Z,10.78
2023-04-20T06:58:00.815Z,10.76
2023-04-20T07:00:36.890Z,10.77
2023-04-20T07:03:09.784Z,10.74
2023-04-20T07:05:42.782Z,10.78
2023-04-20T07:08:16.958Z,10.80
2023-04-20T07:10:49.699Z,10.85
2023-04-20T07:13:22.283Z,10.91
2023-04-20T07:15:55.359Z,10.90
2023-04-20T07:18:28.170Z,10.95
2023-04-20T07:21:00.845Z,10.93
2023-04-20T07:23:33.911Z,11.02
2023-04-20T07:26:07.730Z,11.17
2023-04-20T07:28:40.659Z,11.27
2023-04-20T07:31:13.389Z,11.39
2023-04-20T07:33:46.235Z,11.59
2023-04-20T07:36:20.149Z,11.93
2023-04-20T07:38:53.183Z,12.27
2023-04-20T07:41:25.871Z,12.58
2023-04-20T07:43:58.422Z,12.90
2023-04-20T07:46:33.730Z,13.10
2023-04-20T07:49:06.607Z,13.10
2023-04-20T07:51:39.763Z,13.08
2023-04-20T07:54:12.460Z,13.22
2023-04-20T07:56:45.062Z,13.51
2023-04-20T07:59:17.984Z,13.58
2023-04-20T08:01:56.193Z,13.54
2023-04-20T08:04:29.461Z,13.56
2023-04-20T08:07:03.090Z,13.66
2023-04-20T08:09:36.015Z,13.61
2023-04-20T08:12:09.396Z,13.60
2023-04-20T08:14:41.822Z,13.67
2023-04-20T08:17:15.984Z,13.78
2023-04-20T08:19:48.920Z,13.93
2023-04-20T08:22:21.834Z,14.01
2023-04-20T08:24:56.316Z,14.13
2023-04-20T08:27:30.931Z,14.04
2023-04-20T08:30:04.831Z,14.12
2023-04-20T08:32:37.124Z,14.13
2023-04-20T08:35:10.928Z,14.03
2023-04-20T08:37:44.448Z,14.05
2023-04-20T08:40:20.342Z,13.99
2023-04-20T08:42:53.070Z,13.82
2023-04-20T08:45:26.255Z,13.70
2023-04-20T08:48:00.454Z,13.64
2023-04-20T08:50:33.651Z,13.58
2023-04-20T08:53:07.567Z,13.53
2023-04-20T08:55:40.113Z,13.48
2023-04-20T08:58:13.493Z,13.45
2023-04-20T09:00:51.608Z,13.30
2023-04-20T09:03:37.534Z,13.05
2023-04-20T09:06:19.768Z,12.86
2023-04-20T09:08:54.308Z,13.08
2023-04-20T09:11:28.228Z,12.92
2023-04-20T09:14:06.932Z,12.84
2023-04-20T09:16:40.059Z,12.68
2023-04-20T09:19:12.862Z,12.52
2023-04-20T09:21:56.286Z,12.50
2023-04-20T09:24:35.728Z,12.58
2023-04-20T09:27:19.284Z,12.77
2023-04-20T09:30:04.193Z,12.88
2023-04-20T09:32:37.252Z,12.95
2023-04-20T09:35:11.103Z,13.07
2023-04-20T09:37:52.404Z,13.14
2023-04-20T09:40:26.659Z,13.13
2023-04-20T09:43:06.070Z,12.89
2023-04-20T09:45:40.571Z,12.93
2023-04-20T09:48:15.820Z,13.00
2023-04-20T09:50:50.983Z,12.90
2023-04-20T09:53:24.958Z,13.00
2023-04-20T09:55:58.868Z,13.00
2023-04-20T09:58:34.248Z,13.01
2023-04-20T10:01:10.990Z,13.04
2023-04-20T10:03:44.852Z,12.98
2023-04-20T10:06:25.727Z,12.97
2023-04-20T10:08:58.748Z,13.00
2023-04-20T10:11:44.556Z,12.97
2023-04-20T10:14:26.224Z,12.90
2023-04-20T10:17:07.223Z,12.95
2023-04-20T10:19:45.005Z,12.97
2023-04-20T10:22:34.022Z,12.94
2023-04-20T10:25:19.730Z,13.06
2023-04-20T10:28:00.464Z,13.10
2023-04-20T10:30:33.802Z,12.99
2023-04-20T10:33:11.832Z,12.99
2023-04-20T10:35:51.695Z,12.99
2023-04-20T10:38:34.345Z,13.02
2023-04-20T10:41:14.081Z,13.02
2023-04-20T10:43:48.303Z,13.05
2023-04-20T10:46:22.360Z,13.07
2023-04-20T10:48:57.515Z,13.11
2023-04-20T10:51:30.738Z,13.19
2023-04-20T10:54:12.477Z,13.27
2023-04-20T10:56:47.499Z,13.38
2023-04-20T10:59:22.552Z,13.49
2023-04-20T11:01:55.961Z,13.59
2023-04-20T11:04:33.908Z,13.54
2023-04-20T11:07:11.430Z,13.60
2023-04-20T11:09:44.669Z,13.73
2023-04-20T11:12:18.309Z,13.64
2023-04-20T11:15:01.097Z,13.72
2023-04-20T11:17:38.243Z,13.95
2023-04-20T11:20:15.651Z,14.08
2023-04-20T11:22:58.411Z,14.00
2023-04-20T11:25:31.824Z,14.06
2023-04-20T11:28:13.586Z,14.25
2023-04-20T11:30:48.061Z,14.31
2023-04-20T11:33:29.963Z,14.44
2023-04-20T11:36:05.018Z,14.38
2023-04-20T11:38:38.583Z,14.36
2023-04-20T11:41:12.047Z,14.43
2023-04-20T11:43:43.766Z,14.37
2023-04-20T11:46:20.777Z,14.28
2023-04-20T11:48:57.853Z,14.29
2023-04-20T11:51:32.004Z,14.26
2023-04-20T11:54:04.444Z,14.16
2023-04-20T11:56:38.759Z,14.13
2023-04-20T11:59:11.913Z,14.32
2023-04-20T12:01:46.099Z,14.23
2023-04-20T12:04:18.741Z,14.00
2023-04-20T12:06:52.345Z,13.86
2023-04-20T12:09:25.107Z,13.86
2023-04-20T12:11:58.149Z,13.84
2023-04-20T12:14:30.768Z,13.90
2023-04-20T12:17:04.316Z,14.27
2023-04-20T12:19:36.880Z,14.54
2023-04-20T12:22:09.678Z,14.92
2023-04-20T12:24:42.199Z,15.28
2023-04-20T12:27:14.988Z,15.37
2023-04-20T12:29:47.700Z,15.54
2023-04-20T12:32:22.130Z,15.80
2023-04-20T12:34:56.331Z,15.84
2023-04-20T12:37:30.576Z,15.62
2023-04-20T12:40:04.256Z,15.55
2023-04-20T12:42:37.265Z,15.87
2023-04-20T12:45:11.518Z,15.88
2023-04-20T12:47:44.433Z,15.86
2023-04-20T12:50:17.026Z,15.96
2023-04-20T12:52:50.184Z,16.06
2023-04-20T12:55:23.093Z,16.01
2023-04-20T12:57:55.984Z,15.99
2023-04-20T13:00:27.213Z,15.96
2023-04-20T13:03:00.272Z,15.66
2023-04-20T13:05:33.672Z,15.26
2023-04-20T13:08:06.869Z,15.28
2023-04-20T13:10:41.582Z,15.37
2023-04-20T13:13:14.586Z,15.29
2023-04-20T13:15:47.209Z,15.19
2023-04-20T13:18:21.079Z,15.29
2023-04-20T13:20:53.584Z,15.33
2023-04-20T13:23:26.602Z,15.37
2023-04-20T13:26:01.847Z,15.38
2023-04-20T13:28:34.853Z,15.45
2023-04-20T13:31:08.741Z,15.50
2023-04-20T13:33:41.857Z,15.56
2023-04-20T13:36:15.943Z,15.59
2023-04-20T13:38:49.491Z,15.70
2023-04-20T13:41:22.553Z,15.76
2023-04-20T13:43:55.524Z,15.83
2023-04-20T13:46:28.248Z,15.86
2023-04-20T13:49:01.363Z,15.87
2023-04-20T13:51:34.525Z,15.84
2023-04-20T13:54:07.663Z,15.86
2023-04-20T13:56:40.290Z,15.88
2023-04-20T13:59:13.812Z,15.87
2023-04-20T14:01:48.724Z,15.80
2023-04-20T14:04:21.833Z,15.80
2023-04-20T14:06:55.490Z,15.68
2023-04-20T14:09:28.980Z,15.64
2023-04-20T14:12:00.107Z,15.70
2023-04-20T14:14:32.713Z,15.60
2023-04-20T14:17:05.332Z,15.67
2023-04-20T14:19:38.653Z,15.64
2023-04-20T14:22:09.598Z,15.69
2023-04-20T14:24:42.540Z,15.81
2023-04-20T14:27:15.580Z,15.96
2023-04-20T14:29:48.321Z,16.12
2023-04-20T14:32:22.741Z,16.25
2023-04-20T14:34:55.743Z,16.29
2023-04-20T14:37:28.383Z,16.27
2023-04-20T14:40:01.265Z,16.20
2023-04-20T14:42:35.475Z,16.11
2023-04-20T14:45:09.846Z,15.99
2023-04-20T14:47:43.068Z,15.85
2023-04-20T14:50:16.309Z,15.83
2023-04-20T14:52:48.881Z,15.89
2023-04-20T14:55:23.991Z,15.93
2023-04-20T14:57:58.156Z,15.93
2023-04-20T15:00:31.719Z,15.96
2023-04-20T15:03:04.573Z,16.00
2023-04-20T15:05:38.564Z,16.01
2023-04-20T15:08:11.641Z,16.03
2023-04-20T15:10:46.160Z,16.04
2023-04-20T15:13:18.659Z,16.05
2023-04-20T15:15:54.740Z,16.03
2023-04-20T15:18:27.719Z,16.03
2023-04-20T15:21:01.095Z,15.95
2023-04-20T15:23:33.830Z,15.99
2023-04-20T15:26:08.709Z,15.96
2023-04-20T15:28:41.251Z,15.91
2023-04-20T15:31:17.963Z,16.00
2023-04-20T15:33:50.938Z,15.93
2023-04-20T15:36:24.716Z,15.90
2023-04-20T15:38:58.080Z,15.85
2023-04-20T15:41:31.496Z,15.86
2023-04-20T15:44:04.088Z,15.83
2023-04-20T15:46:37.937Z,15.84
2023-04-20T15:49:10.600Z,15.79
2023-04-20T15:51:44.494Z,15.77
2023-04-20T15:54:16.146Z,15.77
2023-04-20T15:56:53.425Z,15.69
2023-04-20T15:59:26.802Z,15.69
2023-04-20T16:01:57.660Z,15.68
2023-04-20T16:04:30.598Z,15.58
2023-04-20T16:07:03.548Z,15.57
2023-04-20T16:09:36.389Z,15.54
2023-04-20T16:12:09.828Z,15.51
2023-04-20T16:14:40.790Z,15.51
2023-04-20T16:17:13.480Z,15.43
2023-04-20T16:19:46.630Z,15.39
2023-04-20T16:22:17.316Z,15.36
2023-04-20T16:24:50.004Z,15.25
2023-04-20T16:27:25.508Z,15.23
2023-04-20T16:29:59.142Z,15.09
2023-04-20T16:32:32.119Z,15.09
2023-04-20T16:35:10.929Z,15.07
2023-04-20T16:37:45.058Z,14.94
2023-04-20T16:40:18.330Z,14.85
2023-04-20T16:42:49.312Z,14.75
2023-04-20T16:45:22.228Z,14.63
2023-04-20T16:47:57.113Z,14.65
2023-04-20T16:50:30.253Z,14.61
2023-04-20T16:53:03.312Z,14.58
2023-04-20T16:55:36.098Z,14.53
2023-04-20T16:58:09.094Z,14.47
2023-04-20T17:00:42.072Z,14.39
2023-04-20T17:03:15.609Z,14.37
2023-04-20T17:05:48.513Z,14.34
2023-04-20T17:08:22.455Z,14.29
2023-04-20T17:10:55.242Z,14.23
2023-04-20T17:13:27.793Z,14.18
2023-04-20T17:16:00.471Z,14.12
2023-04-20T17:18:34.711Z,14.04
2023-04-20T17:21:07.683Z,13.99
2023-04-20T17:23:41.547Z,13.95
2023-04-20T17:26:14.263Z,13.90
2023-04-20T17:28:48.767Z,13.82
2023-04-20T17:31:21.216Z,13.72
2023-04-20T17:33:54.185Z,13.65
2023-04-20T17:36:28.403Z,13.58
2023-04-20T17:39:01.472Z,13.52
2023-04-20T17:41:35.211Z,13.39
2023-04-20T17:44:08.739Z,13.27
2023-04-20T17:46:42.976Z,13.22
2023-04-20T17:49:15.990Z,13.14
2023-04-20T17:51:48.545Z,13.06
2023-04-20T17:54:22.720Z,12.97
2023-04-20T17:56:56.571Z,12.94
2023-04-20T17:59:35.454Z,12.89
2023-04-20T18:02:14.659Z,12.84
2023-04-20T18:04:53.016Z,12.78
2023-04-20T18:07:31.710Z,12.74
2023-04-20T18:10:14.673Z,12.67
2023-04-20T18:12:56.989Z,12.66
2023-04-20T18:15:31.320Z,12.65
2023-04-20T18:18:08.493Z,12.67
2023-04-20T18:20:58.693Z,12.67
2023-04-20T18:23:38.269Z,12.66
2023-04-20T18:26:17.842Z,12.65
2023-04-20T18:28:51.648Z,12.64
2023-04-20T18:31:32.118Z,12.63
2023-04-20T18:34:07.030Z,12.63
2023-04-20T18:36:42.176Z,12.62
2023-04-20T18:39:16.713Z,12.63
2023-04-20T18:41:50.979Z,12.63
2023-04-20T18:44:25.276Z,12.62
2023-04-20T18:46:58.750Z,12.62
2023-04-20T18:49:32.493Z,12.45
2023-04-20T18:52:05.386Z,12.30
2023-04-20T18:54:38.881Z,12.17
2023-04-20T18:57:09.645Z,12.09
2023-04-20T18:59:42.196Z,11.94
2023-04-20T19:02:15.319Z,11.91
2023-04-20T19:04:47.976Z,11.87
2023-04-20T19:07:22.314Z,11.87
2023-04-20T19:09:55.521Z,11.89
2023-04-20T19:12:29.313Z,11.93
2023-04-20T19:15:02.176Z,11.95
2023-04-20T19:17:35.975Z,11.95
2023-04-20T19:20:12.137Z,11.90
2023-04-20T19:22:45.777Z,11.83
2023-04-20T19:25:18.948Z,11.74
2023-04-20T19:27:51.781Z,11.69
2023-04-20T19:30:24.861Z,11.63
2023-04-20T19:32:57.590Z,11.46
2023-04-20T19:35:30.528Z,11.38
2023-04-20T19:38:03.856Z,11.30
2023-04-20T19:40:36.492Z,11.23
2023-04-20T19:43:09.152Z,11.14
2023-04-20T19:45:42.628Z,11.08
2023-04-20T19:48:14.300Z,11.05
2023-04-20T19:50:47.452Z,10.95
2023-04-20T19:53:21.806Z,10.97
2023-04-20T19:55:55.906Z,10.95
2023-04-20T19:58:28.630Z,10.86
2023-04-20T20:01:01.634Z,10.80
2023-04-20T20:03:34.820Z,10.73
2023-04-20T20:06:08.108Z,10.71
2023-04-20T20:08:43.465Z,10.67
2023-04-20T20:11:16.211Z,10.59
2023-04-20T20:13:49.843Z,10.50
2023-04-20T20:16:22.786Z,10.42
2023-04-20T20:18:56.016Z,10.34
2023-04-20T20:21:28.877Z,10.25
2023-04-20T20:24:02.036Z,10.18
2023-04-20T20:26:34.608Z,10.09
2023-04-20T20:29:07.410Z,10.04
2023-04-20T20:31:39.933Z,10.06
2023-04-20T20:34:12.455Z,10.04
2023-04-20T20:36:46.176Z,10.04
2023-04-20T20:39:19.246Z,10.04
2023-04-20T20:41:52.847Z,10.01
2023-04-20T20:44:25.693Z,10.04
2023-04-20T20:46:58.562Z,10.05
2023-04-20T20:49:31.418Z,10.02
2023-04-20T20:52:05.589Z,10.02
2023-04-20T20:54:38.267Z,9.99
2023-04-20T20:57:10.938Z,9.92
2023-04-20T20:59:43.948Z,9.91
2023-04-20T21:02:18.004Z,9.94
2023-04-20T21:04:50.962Z,9.95
2023-04-20T21:07:23.549Z,9.92
2023-04-20T21:09:56.338Z,9.88
2023-04-20T21:12:29.097Z,9.85
2023-04-20T21:15:01.954Z,9.83
2023-04-20T21:17:34.604Z,9.83
2023-04-20T21:20:09.561Z,9.81
2023-04-20T21:22:42.337Z,9.75
2023-04-20T21:25:15.589Z,9.72
2023-04-20T21:27:48.338Z,9.73
2023-04-20T21:30:21.768Z,9.72
2023-04-20T21:32:56.648Z,9.69
2023-04-20T21:35:29.425Z,9.67
2023-04-20T21:38:02.106Z,9.65
2023-04-20T21:40:35.421Z,9.62
2023-04-20T21:43:08.052Z,9.66
2023-04-20T21:45:40.867Z,9.63
2023-04-20T21:48:13.838Z,9.62
2023-04-20T21:50:46.636Z,9.61
2023-04-20T21:53:19.167Z,9.61
2023-04-20T21:55:52.593Z,9.62
2023-04-20T21:58:25.335Z,9.56
2023-04-20T22:00:58.188Z,9.54
2023-04-20T22:03:31.867Z,9.55
2023-04-20T22:06:04.674Z,9.57
2023-04-20T22:08:40.137Z,9.55
2023-04-20T22:11:13.372Z,9.56
2023-04-20T22:13:45.875Z,9.54
2023-04-20T22:16:21.573Z,9.55
2023-04-20T22:18:56.377Z,9.57
2023-04-20T22:21:29.423Z,9.57
2023-04-20T22:24:02.190Z,9.57
2023-04-20T22:26:35.380Z,9.55
2023-04-20T22:29:08.024Z,9.55
2023-04-20T22:31:40.746Z,9.54
2023-04-20T22:34:13.607Z,9.52
2023-04-20T22:36:46.988Z,9.50
2023-04-20T22:39:18.087Z,9.44
2023-04-20T22:41:51.353Z,9.41
2023-04-20T22:44:24.099Z,9.44
2023-04-20T22:46:57.000Z,9.44
2023-04-20T22:49:29.828Z,9.41
2023-04-20T22:52:02.496Z,9.37
2023-04-20T22:54:35.069Z,9.36
2023-04-20T22:57:07.832Z,9.40
2023-04-20T22:59:41.604Z,9.43
2023-04-20T23:02:14.591Z,9.44
2023-04-20T23:04:47.138Z,9.45
2023-04-20T23:07:19.866Z,9.47
2023-04-20T23:09:52.579Z,9.48
2023-04-20T23:12:26.498Z,9.48
2023-04-20T23:15:00.824Z,9.46
2023-04-20T23:17:33.678Z,9.44
2023-04-20T23:20:09.857Z,9.43
2023-04-20T23:22:43.256Z,9.43
2023-04-20T23:25:15.859Z,9.43
2023-04-20T23:27:48.595Z,9.43
2023-04-20T23:30:21.419Z,9.42
2023-04-20T23:32:55.029Z,9.42
2023-04-20T23:35:25.715Z,9.46
2023-04-20T23:37:59.620Z,9.40
2023-04-20T23:40:33.128Z,9.39
2023-04-20T23:43:05.739Z,9.39
2023-04-20T23:45:38.424Z,9.42
2023-04-20T23:48:11.678Z,9.47
2023-04-20T23:50:44.301Z,9.53
2023-04-20T23:53:16.851Z,9.56
2023-04-20T23:55:55.720Z,9.57
2023-04-20T23:58:29.628Z,9.61
